createdAt,value
2016-10-19T00:00:32.794Z,0
2016-10-19T00:01:33.138Z,0
2016-10-19T00:02:33.157Z,0
2016-10-19T00:03:32.851Z,0
2016-10-19T00:04:33.169Z,0
2016-10-19T00:05:32.910Z,0
2016-10-19T00:06:33.021Z,0
2016-10-19T00:07:33.228Z,0
2016-10-19T00:08:33.247Z,0
2016-10-19T00:09:32.941Z,0
2016-10-19T00:10:32.954Z,0
2016-10-19T00:11:33.004Z,0
2016-10-19T00:12:33.281Z,0
2016-10-19T00:13:33.325Z,0
2016-10-19T00:14:33.341Z,0
2016-10-19T00:15:33.039Z,0
2016-10-19T00:16:33.421Z,0
2016-10-19T00:17:33.557Z,0
2016-10-19T00:18:33.457Z,0
2016-10-19T00:19:33.429Z,0
2016-10-19T00:20:33.137Z,0
2016-10-19T00:21:32.849Z,0
2016-10-19T00:22:33.172Z,0
2016-10-19T00:23:33.503Z,0
2016-10-19T00:24:33.193Z,0
2016-10-19T00:25:33.260Z,0
2016-10-19T00:26:33.235Z,0
2016-10-19T00:27:33.251Z,0
2016-10-19T00:28:33.271Z,0
2016-10-19T00:29:33.333Z,0
2016-10-19T00:30:33.292Z,0
2016-10-19T00:31:33.722Z,0
2016-10-19T00:32:33.042Z,0
2016-10-19T00:33:33.637Z,0
2016-10-19T00:34:33.365Z,0
2016-10-19T00:35:33.688Z,0
2016-10-19T00:36:33.731Z,0
2016-10-19T00:37:33.189Z,0
2016-10-19T00:38:33.480Z,0
2016-10-19T00:39:33.440Z,0
2016-10-19T00:40:33.544Z,0
2016-10-19T00:41:33.538Z,0
2016-10-19T00:42:33.521Z,0
2016-10-19T00:43:33.832Z,0
2016-10-19T00:44:33.609Z,0
2016-10-19T00:45:33.615Z,0
2016-10-19T00:46:33.396Z,0
2016-10-19T00:47:33.281Z,0
2016-10-19T00:48:33.590Z,0
2016-10-19T00:49:33.910Z,0
2016-10-19T00:50:33.938Z,0
2016-10-19T00:51:33.378Z,0
2016-10-19T00:52:33.955Z,0
2016-10-19T00:53:34.002Z,0
2016-10-19T00:54:33.441Z,0
2016-10-19T00:55:33.711Z,0
2016-10-19T00:56:34.034Z,0
2016-10-19T00:57:34.092Z,0
2016-10-19T00:58:33.519Z,0
2016-10-19T00:59:34.162Z,0
2016-10-19T01:00:34.148Z,0
2016-10-19T01:01:34.116Z,0
2016-10-19T01:02:33.832Z,0
2016-10-19T01:03:34.154Z,0
2016-10-19T01:04:34.169Z,0
2016-10-19T01:05:34.183Z,0
2016-10-19T01:06:33.878Z,0
2016-10-19T01:07:34.221Z,0
2016-10-19T01:08:34.280Z,0
2016-10-19T01:09:33.767Z,0
2016-10-19T01:10:33.960Z,0
2016-10-19T01:11:34.309Z,0
2016-10-19T01:12:33.987Z,0
2016-10-19T01:13:34.025Z,0
2016-10-19T01:14:34.031Z,0
2016-10-19T01:15:34.050Z,0
2016-10-19T01:16:33.750Z,0
2016-10-19T01:17:34.111Z,0
2016-10-19T01:18:34.400Z,0
2016-10-19T01:19:34.095Z,0
2016-10-19T01:20:34.236Z,0
2016-10-19T01:21:34.444Z,0
2016-10-19T01:22:34.461Z,0
2016-10-19T01:23:33.546Z,0
2016-10-19T01:24:34.201Z,0
2016-10-19T01:25:34.583Z,0
2016-10-19T01:26:34.319Z,0
2016-10-19T01:27:34.239Z,0
2016-10-19T01:28:34.578Z,0
2016-10-19T01:29:34.274Z,0
2016-10-19T01:30:34.586Z,0
2016-10-19T01:31:34.602Z,0
2016-10-19T01:32:34.636Z,0
2016-10-19T01:33:34.637Z,0
2016-10-19T01:34:34.669Z,0
2016-10-19T01:35:34.372Z,0
2016-10-19T01:36:34.380Z,0
2016-10-19T01:37:34.396Z,0
2016-10-19T01:38:33.817Z,0
2016-10-19T01:39:34.437Z,0
2016-10-19T01:40:34.460Z,0
2016-10-19T01:41:34.469Z,0
2016-10-19T01:42:34.170Z,0
2016-10-19T01:43:34.502Z,0
2016-10-19T01:44:34.831Z,0
2016-10-19T01:45:34.535Z,0
2016-10-19T01:46:34.861Z,0
2016-10-19T01:47:34.865Z,0
2016-10-19T01:48:34.908Z,0
2016-10-19T01:49:34.933Z,0
2016-10-19T01:50:34.709Z,0
2016-10-19T01:51:34.942Z,0
2016-10-19T01:52:35.049Z,0
2016-10-19T01:53:34.663Z,0
2016-10-19T01:54:34.374Z,0
2016-10-19T01:55:34.708Z,0
2016-10-19T01:56:35.018Z,0
2016-10-19T01:57:35.050Z,0
2016-10-19T01:58:35.052Z,0
2016-10-19T01:59:35.075Z,0
2016-10-19T02:00:34.788Z,0
2016-10-19T02:01:35.106Z,0
2016-10-19T02:02:35.121Z,0
2016-10-19T02:03:35.252Z,0
2016-10-19T02:04:35.212Z,0
2016-10-19T02:05:34.870Z,0
2016-10-19T02:06:34.873Z,0
2016-10-19T02:07:35.210Z,0
2016-10-19T02:08:35.227Z,0
2016-10-19T02:09:35.239Z,0
2016-10-19T02:10:35.261Z,0
2016-10-19T02:11:35.088Z,0
2016-10-19T02:12:34.980Z,0
2016-10-19T02:13:35.289Z,0
2016-10-19T02:14:35.010Z,0
2016-10-19T02:15:35.328Z,0
2016-10-19T02:16:35.352Z,0
2016-10-19T02:17:35.175Z,0
2016-10-19T02:18:35.391Z,0
2016-10-19T02:19:35.511Z,0
2016-10-19T02:20:35.522Z,0
2016-10-19T02:21:34.874Z,0
2016-10-19T02:22:35.450Z,0
2016-10-19T02:23:35.498Z,0
2016-10-19T02:24:35.169Z,0
2016-10-19T02:25:35.205Z,0
2016-10-19T02:26:35.515Z,0
2016-10-19T02:27:35.539Z,0
2016-10-19T02:28:35.227Z,0
2016-10-19T02:29:35.691Z,0
2016-10-19T02:30:35.389Z,0
2016-10-19T02:31:35.732Z,0
2016-10-19T02:32:34.989Z,0
2016-10-19T02:33:35.651Z,0
2016-10-19T02:34:35.328Z,0
2016-10-19T02:35:35.038Z,0
2016-10-19T02:36:35.673Z,0
2016-10-19T02:37:34.764Z,0
2016-10-19T02:38:35.709Z,0
2016-10-19T02:39:35.479Z,0
2016-10-19T02:40:35.568Z,0
2016-10-19T02:41:35.781Z,0
2016-10-19T02:42:35.462Z,0
2016-10-19T02:43:35.271Z,0
2016-10-19T02:44:35.497Z,0
2016-10-19T02:45:35.636Z,0
2016-10-19T02:46:35.934Z,0
2016-10-19T02:47:35.899Z,0
2016-10-19T02:48:35.909Z,0
2016-10-19T02:49:36.002Z,0
2016-10-19T02:50:35.582Z,0
2016-10-19T02:51:35.979Z,0
2016-10-19T02:52:35.679Z,0
2016-10-19T02:53:35.651Z,0
2016-10-19T02:54:35.675Z,0
2016-10-19T02:55:35.670Z,0
2016-10-19T02:56:35.716Z,0
2016-10-19T02:57:36.024Z,0
2016-10-19T02:58:35.744Z,0
2016-10-19T02:59:36.192Z,0
2016-10-19T03:00:36.119Z,0
2016-10-19T03:01:36.102Z,0
2016-10-19T03:02:36.560Z,0
2016-10-19T03:03:36.226Z,0
2016-10-19T03:04:36.055Z,0
2016-10-19T03:05:35.743Z,0
2016-10-19T03:06:36.067Z,0
2016-10-19T03:07:36.196Z,0
2016-10-19T03:08:36.223Z,0
2016-10-19T03:09:36.130Z,0
2016-10-19T03:10:36.255Z,0
2016-10-19T03:11:36.284Z,0
2016-10-19T03:12:36.734Z,0
2016-10-19T03:13:36.374Z,0
2016-10-19T03:14:36.126Z,0
2016-10-19T03:15:36.131Z,0
2016-10-19T03:16:36.385Z,0
2016-10-19T03:17:36.154Z,0
2016-10-19T03:18:36.402Z,0
2016-10-19T03:19:36.143Z,0
2016-10-19T03:20:36.111Z,0
2016-10-19T03:21:36.432Z,0
2016-10-19T03:22:36.429Z,0
2016-10-19T03:23:36.215Z,0
2016-10-19T03:24:35.903Z,0
2016-10-19T03:25:36.540Z,0
2016-10-19T03:26:35.575Z,0
2016-10-19T03:27:36.577Z,0
2016-10-19T03:28:36.561Z,0
2016-10-19T03:29:36.396Z,0
2016-10-19T03:30:36.673Z,0
2016-10-19T03:31:36.656Z,0
2016-10-19T03:32:36.617Z,0
2016-10-19T03:33:36.637Z,0
2016-10-19T03:34:36.648Z,0
2016-10-19T03:35:36.658Z,0
2016-10-19T03:36:36.806Z,0
2016-10-19T03:37:36.706Z,0
2016-10-19T03:38:36.394Z,0
2016-10-19T03:39:36.845Z,0
2016-10-19T03:40:36.428Z,0
2016-10-19T03:41:36.797Z,0
2016-10-19T03:42:36.834Z,0
2016-10-19T03:43:36.928Z,0
2016-10-19T03:44:36.801Z,0
2016-10-19T03:45:36.894Z,0
2016-10-19T03:46:36.833Z,0
2016-10-19T03:47:36.038Z,0
2016-10-19T03:48:36.872Z,0
2016-10-19T03:49:36.895Z,0
2016-10-19T03:50:36.603Z,0
2016-10-19T03:51:36.684Z,0
2016-10-19T03:52:36.634Z,0
2016-10-19T03:53:36.953Z,0
2016-10-19T03:54:36.978Z,0
2016-10-19T03:55:36.397Z,0
2016-10-19T03:56:36.696Z,0
2016-10-19T03:57:36.707Z,0
2016-10-19T03:58:36.728Z,0
2016-10-19T03:59:37.076Z,0
2016-10-19T04:00:36.767Z,0
2016-10-19T04:01:36.880Z,0
2016-10-19T04:02:37.108Z,0
2016-10-19T04:03:36.818Z,0
2016-10-19T04:04:36.529Z,0
2016-10-19T04:05:36.863Z,0
2016-10-19T04:06:36.915Z,0
2016-10-19T04:07:36.889Z,0
2016-10-19T04:08:36.968Z,0
2016-10-19T04:09:36.612Z,0
2016-10-19T04:10:37.299Z,0
2016-10-19T04:11:37.268Z,0
2016-10-19T04:12:37.291Z,0
2016-10-19T04:13:37.299Z,0
2016-10-19T04:14:37.108Z,0
2016-10-19T04:15:37.019Z,0
2016-10-19T04:16:36.729Z,0
2016-10-19T04:17:37.148Z,0
2016-10-19T04:18:37.379Z,0
2016-10-19T04:19:37.141Z,0
2016-10-19T04:20:36.942Z,0
2016-10-19T04:21:37.117Z,0
2016-10-19T04:22:37.449Z,0
2016-10-19T04:23:37.552Z,0
2016-10-19T04:24:37.219Z,0
2016-10-19T04:25:37.171Z,0
2016-10-19T04:26:37.490Z,0
2016-10-19T04:27:37.570Z,0
2016-10-19T04:28:37.534Z,0
2016-10-19T04:29:37.247Z,0
2016-10-19T04:30:37.287Z,0
2016-10-19T04:31:36.976Z,0
2016-10-19T04:32:37.595Z,0
2016-10-19T04:33:37.321Z,0
2016-10-19T04:34:37.415Z,0
2016-10-19T04:35:37.039Z,0
2016-10-19T04:36:37.062Z,0
2016-10-19T04:37:37.081Z,0
2016-10-19T04:38:37.735Z,0
2016-10-19T04:39:37.450Z,0
2016-10-19T04:40:37.541Z,0
2016-10-19T04:41:37.780Z,0
2016-10-19T04:42:37.800Z,0
2016-10-19T04:43:37.494Z,0
2016-10-19T04:44:37.831Z,0
2016-10-19T04:45:37.831Z,0
2016-10-19T04:46:37.850Z,0
2016-10-19T04:47:37.570Z,0
2016-10-19T04:48:37.892Z,0
2016-10-19T04:49:37.675Z,0
2016-10-19T04:50:37.919Z,0
2016-10-19T04:51:38.097Z,0
2016-10-19T04:52:38.003Z,0
2016-10-19T04:53:37.690Z,0
2016-10-19T04:54:37.676Z,0
2016-10-19T04:55:37.732Z,0
2016-10-19T04:56:37.703Z,0
2016-10-19T04:57:37.481Z,0
2016-10-19T04:58:37.747Z,0
2016-10-19T04:59:38.079Z,0
2016-10-19T05:00:38.083Z,0
2016-10-19T05:01:38.134Z,0
2016-10-19T05:02:38.236Z,0
2016-10-19T05:03:38.229Z,0
2016-10-19T05:04:37.980Z,0
2016-10-19T05:05:38.171Z,0
2016-10-19T05:06:38.340Z,0
2016-10-19T05:07:37.585Z,0
2016-10-19T05:08:37.921Z,0
2016-10-19T05:09:37.939Z,0
2016-10-19T05:10:38.302Z,0
2016-10-19T05:11:37.650Z,0
2016-10-19T05:12:37.990Z,48
2016-10-19T05:13:38.313Z,48
2016-10-19T05:14:37.707Z,48
2016-10-19T05:15:38.027Z,48
2016-10-19T05:16:38.058Z,48
2016-10-19T05:17:37.524Z,48
2016-10-19T05:18:38.421Z,48
2016-10-19T05:19:38.485Z,48
2016-10-19T05:20:38.409Z,48
2016-10-19T05:21:37.878Z,48
2016-10-19T05:22:38.449Z,48
2016-10-19T05:23:38.480Z,48
2016-10-19T05:24:38.191Z,52
2016-10-19T05:25:38.221Z,52
2016-10-19T05:26:38.229Z,48
2016-10-19T05:27:38.548Z,48
2016-10-19T05:28:38.566Z,52
2016-10-19T05:29:38.001Z,48
2016-10-19T05:30:38.688Z,48
2016-10-19T05:31:38.659Z,48
2016-10-19T05:32:38.056Z,48
2016-10-19T05:33:38.353Z,52
2016-10-19T05:34:38.408Z,52
2016-10-19T05:35:38.712Z,52
2016-10-19T05:36:38.710Z,52
2016-10-19T05:37:38.408Z,52
2016-10-19T05:38:38.456Z,52
2016-10-19T05:39:38.448Z,56
2016-10-19T05:40:38.769Z,56
2016-10-19T05:41:38.480Z,60
2016-10-19T05:42:38.499Z,60
2016-10-19T05:43:38.509Z,60
2016-10-19T05:44:38.208Z,64
2016-10-19T05:45:38.863Z,64
2016-10-19T05:46:38.556Z,68
2016-10-19T05:47:38.565Z,68
2016-10-19T05:48:38.909Z,64
2016-10-19T05:49:38.602Z,68
2016-10-19T05:50:38.765Z,68
2016-10-19T05:51:38.631Z,68
2016-10-19T05:52:38.960Z,68
2016-10-19T05:53:38.680Z,64
2016-10-19T05:54:39.013Z,64
2016-10-19T05:55:39.030Z,64
2016-10-19T05:56:39.130Z,64
2016-10-19T05:57:39.180Z,68
2016-10-19T05:58:39.093Z,76
2016-10-19T05:59:39.214Z,80
2016-10-19T06:00:39.107Z,76
2016-10-19T06:01:39.170Z,80
2016-10-19T06:02:39.176Z,84
2016-10-19T06:03:39.189Z,96
2016-10-19T06:04:39.202Z,100
2016-10-19T06:05:39.219Z,104
2016-10-19T06:06:39.200Z,104
2016-10-19T06:07:39.296Z,120
2016-10-19T06:08:39.318Z,128
2016-10-19T06:09:38.965Z,144
2016-10-19T06:10:39.281Z,152
2016-10-19T06:11:38.991Z,148
2016-10-19T06:12:39.011Z,164
2016-10-19T06:13:39.344Z,184
2016-10-19T06:14:39.038Z,188
2016-10-19T06:15:39.360Z,196
2016-10-19T06:16:39.379Z,224
2016-10-19T06:17:39.090Z,228
2016-10-19T06:18:39.416Z,252
2016-10-19T06:19:39.120Z,268
2016-10-19T06:20:39.448Z,288
2016-10-19T06:21:39.461Z,304
2016-10-19T06:22:39.480Z,360
2016-10-19T06:23:39.640Z,368
2016-10-19T06:24:39.355Z,372
2016-10-19T06:25:38.949Z,376
2016-10-19T06:26:39.237Z,412
2016-10-19T06:27:39.619Z,444
2016-10-19T06:28:39.296Z,516
2016-10-19T06:29:39.560Z,528
2016-10-19T06:30:39.654Z,460
2016-10-19T06:31:39.031Z,428
2016-10-19T06:32:39.799Z,432
2016-10-19T06:33:39.997Z,424
2016-10-19T06:34:39.888Z,492
2016-10-19T06:35:39.930Z,512
2016-10-19T06:36:40.175Z,548
2016-10-19T06:37:39.638Z,620
2016-10-19T06:38:40.018Z,608
2016-10-19T06:39:39.699Z,640
2016-10-19T06:40:39.488Z,612
2016-10-19T06:41:39.995Z,556
2016-10-19T06:42:40.251Z,496
2016-10-19T06:43:40.000Z,476
2016-10-19T06:44:39.797Z,468
2016-10-19T06:45:39.688Z,408
2016-10-19T06:46:40.029Z,436
2016-10-19T06:47:39.608Z,464
2016-10-19T06:48:39.716Z,452
2016-10-19T06:49:39.936Z,456
2016-10-19T06:50:40.077Z,580
2016-10-19T06:51:40.274Z,756
2016-10-19T06:52:40.078Z,812
2016-10-19T06:53:40.329Z,820
2016-10-19T06:54:40.087Z,696
2016-10-19T06:55:39.950Z,700
2016-10-19T06:56:39.752Z,720
2016-10-19T06:57:39.928Z,840
2016-10-19T06:58:40.088Z,868
2016-10-19T06:59:40.339Z,920
2016-10-19T07:00:40.144Z,928
2016-10-19T07:01:39.919Z,920
2016-10-19T07:02:40.099Z,868
2016-10-19T07:03:40.234Z,828
2016-10-19T07:04:40.256Z,892
2016-10-19T07:05:40.075Z,1028
2016-10-19T07:06:40.243Z,1216
2016-10-19T07:07:39.954Z,1316
2016-10-19T07:08:40.396Z,1528
2016-10-19T07:09:39.994Z,1672
2016-10-19T07:10:40.403Z,1900
2016-10-19T07:11:40.349Z,2120
2016-10-19T07:12:40.058Z,2376
2016-10-19T07:13:40.413Z,2556
2016-10-19T07:14:40.129Z,2636
2016-10-19T07:15:40.416Z,2728
2016-10-19T07:16:40.494Z,2800
2016-10-19T07:17:40.129Z,2820
2016-10-19T07:18:40.533Z,2804
2016-10-19T07:19:40.488Z,2808
2016-10-19T07:20:40.543Z,2808
2016-10-19T07:21:40.207Z,2832
2016-10-19T07:22:40.543Z,2876
2016-10-19T07:23:40.256Z,2916
2016-10-19T07:24:40.286Z,2956
2016-10-19T07:25:40.290Z,3060
2016-10-19T07:26:40.304Z,3304
2016-10-19T07:27:40.320Z,3596
2016-10-19T07:28:40.656Z,3736
2016-10-19T07:29:40.398Z,3756
2016-10-19T07:30:40.825Z,3796
2016-10-19T07:31:40.435Z,3856
2016-10-19T07:32:40.418Z,3924
2016-10-19T07:33:40.781Z,4076
2016-10-19T07:34:40.824Z,4176
2016-10-19T07:35:40.771Z,4240
2016-10-19T07:36:40.491Z,4324
2016-10-19T07:37:40.815Z,4460
2016-10-19T07:38:40.578Z,4600
2016-10-19T07:39:40.850Z,4756
2016-10-19T07:40:40.987Z,4904
2016-10-19T07:41:40.283Z,4972
2016-10-19T07:42:40.597Z,5044
2016-10-19T07:43:40.318Z,5280
2016-10-19T07:44:40.694Z,5584
2016-10-19T07:45:40.688Z,5776
2016-10-19T07:46:40.372Z,5816
2016-10-19T07:47:40.992Z,5872
2016-10-19T07:48:40.717Z,5968
2016-10-19T07:49:41.046Z,6104
2016-10-19T07:50:41.095Z,6276
2016-10-19T07:51:41.073Z,6388
2016-10-19T07:52:41.095Z,6424
2016-10-19T07:53:41.256Z,6316
2016-10-19T07:54:40.824Z,6256
2016-10-19T07:55:40.846Z,6288
2016-10-19T07:56:41.217Z,6376
2016-10-19T07:57:40.642Z,6504
2016-10-19T07:58:41.217Z,6784
2016-10-19T07:59:40.928Z,7576
2016-10-19T08:00:41.273Z,8644
2016-10-19T08:01:40.983Z,9260
2016-10-19T08:02:40.675Z,9228
2016-10-19T08:03:40.708Z,9000
2016-10-19T08:04:41.317Z,8712
2016-10-19T08:05:40.778Z,8224
2016-10-19T08:06:41.367Z,7752
2016-10-19T08:07:40.777Z,7424
2016-10-19T08:08:41.097Z,7360
2016-10-19T08:09:41.476Z,7204
2016-10-19T08:10:40.868Z,6948
2016-10-19T08:11:41.518Z,6588
2016-10-19T08:12:41.496Z,6492
2016-10-19T08:13:41.515Z,6536
2016-10-19T08:14:41.528Z,6612
2016-10-19T08:15:41.544Z,6668
2016-10-19T08:16:41.549Z,6672
2016-10-19T08:17:41.571Z,6584
2016-10-19T08:18:41.736Z,6364
2016-10-19T08:19:41.747Z,6100
2016-10-19T08:20:41.357Z,5812
2016-10-19T08:21:41.375Z,5920
2016-10-19T08:22:41.737Z,5860
2016-10-19T08:23:41.380Z,5628
2016-10-19T08:24:41.728Z,5668
2016-10-19T08:25:41.756Z,5604
2016-10-19T08:26:41.165Z,5680
2016-10-19T08:27:41.777Z,6020
2016-10-19T08:28:41.500Z,6496
2016-10-19T08:29:41.359Z,6936
2016-10-19T08:30:41.837Z,7412
2016-10-19T08:31:41.856Z,8064
2016-10-19T08:32:41.375Z,8576
2016-10-19T08:33:41.581Z,8284
2016-10-19T08:34:41.640Z,7916
2016-10-19T08:35:41.619Z,6848
2016-10-19T08:36:41.485Z,6408
2016-10-19T08:37:41.664Z,6096
2016-10-19T08:38:41.986Z,5844
2016-10-19T08:39:42.021Z,6012
2016-10-19T08:40:42.050Z,6516
2016-10-19T08:41:42.062Z,6880
2016-10-19T08:42:42.078Z,6908
2016-10-19T08:43:42.383Z,6640
2016-10-19T08:44:41.942Z,6552
2016-10-19T08:45:41.871Z,7024
2016-10-19T08:46:41.936Z,7704
2016-10-19T08:47:42.246Z,7992
2016-10-19T08:48:42.285Z,7968
2016-10-19T08:49:42.266Z,8056
2016-10-19T08:50:41.966Z,8200
2016-10-19T08:51:42.253Z,8400
2016-10-19T08:52:41.791Z,8576
2016-10-19T08:53:41.992Z,8700
2016-10-19T08:54:41.994Z,8684
2016-10-19T08:55:42.327Z,8512
2016-10-19T08:56:41.875Z,8316
2016-10-19T08:57:42.069Z,8304
2016-10-19T08:58:42.415Z,8444
2016-10-19T08:59:42.413Z,8552
2016-10-19T09:00:42.181Z,8524
2016-10-19T09:01:42.453Z,8384
2016-10-19T09:02:41.849Z,8284
2016-10-19T09:03:42.497Z,8248
2016-10-19T09:04:42.214Z,8440
2016-10-19T09:05:42.542Z,8504
2016-10-19T09:06:42.546Z,8616
2016-10-19T09:07:42.264Z,8732
2016-10-19T09:08:41.977Z,8840
2016-10-19T09:09:42.661Z,9204
2016-10-19T09:10:42.632Z,9728
2016-10-19T09:11:42.352Z,9864
2016-10-19T09:12:42.070Z,9876
2016-10-19T09:13:42.494Z,9604
2016-10-19T09:14:42.412Z,9024
2016-10-19T09:15:42.746Z,8040
2016-10-19T09:16:42.136Z,7220
2016-10-19T09:17:42.469Z,6948
2016-10-19T09:18:42.800Z,6848
2016-10-19T09:19:42.200Z,6604
2016-10-19T09:20:42.936Z,6500
2016-10-19T09:21:42.585Z,6572
2016-10-19T09:22:42.581Z,6820
2016-10-19T09:23:42.300Z,6924
2016-10-19T09:24:42.629Z,7532
2016-10-19T09:25:42.659Z,7696
2016-10-19T09:26:42.656Z,7788
2016-10-19T09:27:43.002Z,8212
2016-10-19T09:28:43.001Z,8756
2016-10-19T09:29:43.048Z,8492
2016-10-19T09:30:43.061Z,8372
2016-10-19T09:31:43.069Z,9356
2016-10-19T09:32:42.842Z,10972
2016-10-19T09:33:42.919Z,11748
2016-10-19T09:34:42.840Z,11816
2016-10-19T09:35:42.873Z,11152
2016-10-19T09:36:42.870Z,9468
2016-10-19T09:37:42.877Z,8024
2016-10-19T09:38:42.922Z,7492
2016-10-19T09:39:43.251Z,6936
2016-10-19T09:40:43.266Z,6464
2016-10-19T09:41:42.997Z,6052
2016-10-19T09:42:43.345Z,6072
2016-10-19T09:43:43.320Z,6084
2016-10-19T09:44:43.059Z,6604
2016-10-19T09:45:43.379Z,7764
2016-10-19T09:46:43.393Z,8552
2016-10-19T09:47:43.469Z,8628
2016-10-19T09:48:43.141Z,8620
2016-10-19T09:49:43.400Z,8112
2016-10-19T09:50:43.700Z,7744
2016-10-19T09:51:43.491Z,7584
2016-10-19T09:52:43.716Z,7660
2016-10-19T09:53:43.680Z,7544
2016-10-19T09:54:43.865Z,7264
2016-10-19T09:55:43.115Z,7000
2016-10-19T09:56:44.009Z,6580
2016-10-19T09:57:43.790Z,6660
2016-10-19T09:58:43.470Z,6844
2016-10-19T09:59:43.144Z,6936
2016-10-19T10:00:43.789Z,6960
2016-10-19T10:01:43.478Z,7584
2016-10-19T10:02:43.487Z,8084
2016-10-19T10:03:43.790Z,8264
2016-10-19T10:04:43.468Z,8692
2016-10-19T10:05:43.473Z,8772
2016-10-19T10:06:43.825Z,9072
2016-10-19T10:07:43.840Z,9132
2016-10-19T10:08:43.609Z,8868
2016-10-19T10:09:43.588Z,9052
2016-10-19T10:10:44.010Z,9164
2016-10-19T10:11:43.599Z,8820
2016-10-19T10:12:44.044Z,8652
2016-10-19T10:13:43.041Z,8676
2016-10-19T10:14:44.018Z,8952
2016-10-19T10:15:44.010Z,9236
2016-10-19T10:16:44.074Z,9468
2016-10-19T10:17:43.737Z,9572
2016-10-19T10:18:44.098Z,9776
2016-10-19T10:19:44.090Z,9892
2016-10-19T10:20:43.941Z,9820
2016-10-19T10:21:44.198Z,9648
2016-10-19T10:22:44.148Z,9436
2016-10-19T10:23:44.181Z,9272
2016-10-19T10:24:43.948Z,9284
2016-10-19T10:25:44.220Z,9092
2016-10-19T10:26:43.957Z,8848
2016-10-19T10:27:43.948Z,8620
2016-10-19T10:28:44.340Z,8500
2016-10-19T10:29:44.276Z,8388
2016-10-19T10:30:44.304Z,8196
2016-10-19T10:31:44.348Z,7916
2016-10-19T10:32:44.361Z,7572
2016-10-19T10:33:44.372Z,7188
2016-10-19T10:34:44.400Z,6812
2016-10-19T10:35:44.095Z,6348
2016-10-19T10:36:44.186Z,5980
2016-10-19T10:37:44.160Z,5740
2016-10-19T10:38:44.537Z,5628
2016-10-19T10:39:44.495Z,5664
2016-10-19T10:40:44.520Z,5808
2016-10-19T10:41:44.545Z,6096
2016-10-19T10:42:44.260Z,6192
2016-10-19T10:43:43.980Z,6252
2016-10-19T10:44:44.032Z,6360
2016-10-19T10:45:44.648Z,6436
2016-10-19T10:46:44.672Z,6716
2016-10-19T10:47:44.670Z,7028
2016-10-19T10:48:44.378Z,7168
2016-10-19T10:49:44.852Z,7596
2016-10-19T10:50:44.730Z,7768
2016-10-19T10:51:44.820Z,7572
2016-10-19T10:52:44.810Z,7300
2016-10-19T10:53:44.477Z,7144
2016-10-19T10:54:44.818Z,6916
2016-10-19T10:55:44.847Z,6680
2016-10-19T10:56:44.544Z,6432
2016-10-19T10:58:16.549Z,6088
2016-10-19T10:58:45.011Z,6020
2016-10-19T10:59:44.605Z,5876
2016-10-19T11:00:44.994Z,5628
2016-10-19T11:01:44.967Z,5372
2016-10-19T11:02:44.658Z,5424
2016-10-19T11:03:44.715Z,5664
2016-10-19T11:04:45.031Z,5676
2016-10-19T11:05:45.068Z,5364
2016-10-19T11:06:45.269Z,5352
2016-10-19T11:07:45.078Z,5376
2016-10-19T11:08:45.103Z,5412
2016-10-19T11:09:45.119Z,5480
2016-10-19T11:10:44.516Z,5592
2016-10-19T11:11:45.259Z,5696
2016-10-19T11:12:44.863Z,5816
2016-10-19T11:13:44.889Z,5908
2016-10-19T11:14:45.315Z,5892
2016-10-19T11:15:44.931Z,5784
2016-10-19T11:16:44.976Z,5720
2016-10-19T11:17:44.706Z,5740
2016-10-19T11:18:45.309Z,5820
2016-10-19T11:19:45.350Z,5888
2016-10-19T11:20:45.061Z,6040
2016-10-19T11:21:45.120Z,6328
2016-10-19T11:22:45.196Z,6572
2016-10-19T11:23:45.415Z,6800
2016-10-19T11:24:45.424Z,7140
2016-10-19T11:25:45.213Z,7516
2016-10-19T11:26:45.152Z,7892
2016-10-19T11:27:44.864Z,8288
2016-10-19T11:28:44.889Z,8596
2016-10-19T11:29:45.539Z,8720
2016-10-19T11:30:45.541Z,8728
2016-10-19T11:31:45.567Z,8832
2016-10-19T11:32:45.269Z,8952
2016-10-19T11:33:45.312Z,9020
2016-10-19T11:34:45.611Z,9104
2016-10-19T11:35:45.749Z,9164
2016-10-19T11:36:45.485Z,9148
2016-10-19T11:37:45.370Z,9048
2016-10-19T11:39:17.506Z,8700
2016-10-19T11:39:45.765Z,8592
2016-10-19T11:40:45.762Z,8408
2016-10-19T11:41:45.452Z,8264
2016-10-19T11:42:45.478Z,8112
2016-10-19T11:43:45.805Z,7956
2016-10-19T11:44:45.852Z,7832
2016-10-19T11:45:45.621Z,7716
2016-10-19T11:46:45.552Z,7596
2016-10-19T11:47:45.611Z,7448
2016-10-19T11:48:45.893Z,7280
2016-10-19T11:49:45.301Z,7124
2016-10-19T11:50:45.333Z,6996
2016-10-19T11:51:45.812Z,6880
2016-10-19T11:52:45.688Z,6772
2016-10-19T11:53:46.003Z,6688
2016-10-19T11:54:46.041Z,6652
2016-10-19T11:55:46.039Z,6676
2016-10-19T11:56:45.750Z,6744
2016-10-19T11:57:46.095Z,6844
2016-10-19T11:58:46.121Z,6880
2016-10-19T11:59:46.122Z,6852
2016-10-19T12:00:45.700Z,6836
2016-10-19T12:01:45.527Z,6780
2016-10-19T12:02:46.266Z,6696
2016-10-19T12:03:46.289Z,6656
2016-10-19T12:04:45.961Z,6680
2016-10-19T12:05:46.250Z,6720
2016-10-19T12:06:46.311Z,6700
2016-10-19T12:07:46.277Z,6604
2016-10-19T12:08:46.288Z,6452
2016-10-19T12:09:46.319Z,6272
2016-10-19T12:10:46.351Z,6064
2016-10-19T12:11:46.341Z,5864
2016-10-19T12:12:46.383Z,5660
2016-10-19T12:13:46.386Z,5472
2016-10-19T12:14:46.509Z,5320
2016-10-19T12:15:46.448Z,5204
2016-10-19T12:16:46.501Z,5100
2016-10-19T12:17:46.149Z,5016
2016-10-19T12:18:46.563Z,4936
2016-10-19T12:19:46.196Z,4860
2016-10-19T12:20:46.541Z,4780
2016-10-19T12:21:46.562Z,4712
2016-10-19T12:22:46.259Z,4652
2016-10-19T12:23:46.579Z,4604
2016-10-19T12:24:46.294Z,4568
2016-10-19T12:25:46.646Z,4528
2016-10-19T12:26:46.345Z,4468
2016-10-19T12:27:46.479Z,4420
2016-10-19T12:28:46.710Z,4372
2016-10-19T12:29:46.767Z,4312
2016-10-19T12:30:46.418Z,4236
2016-10-19T12:31:46.801Z,4152
2016-10-19T12:32:46.472Z,4068
2016-10-19T12:33:46.800Z,4000
2016-10-19T12:34:46.503Z,3956
2016-10-19T12:35:46.876Z,3932
2016-10-19T12:36:46.843Z,3916
2016-10-19T12:37:46.859Z,3880
2016-10-19T12:38:46.890Z,3816
2016-10-19T12:39:46.907Z,3760
2016-10-19T12:40:46.917Z,3712
2016-10-19T12:42:18.925Z,3820
2016-10-19T12:42:46.970Z,3896
2016-10-19T12:43:47.104Z,4128
2016-10-19T12:44:47.022Z,4372
2016-10-19T12:45:47.059Z,4584
2016-10-19T12:46:47.253Z,4828
2016-10-19T12:47:47.133Z,5000
2016-10-19T12:48:46.773Z,5120
2016-10-19T12:49:47.112Z,5272
2016-10-19T12:50:47.131Z,5432
2016-10-19T12:51:47.228Z,5560
2016-10-19T12:52:46.873Z,5628
2016-10-19T12:53:47.266Z,5668
2016-10-19T12:54:46.883Z,5680
2016-10-19T12:55:46.921Z,5792
2016-10-19T12:56:47.226Z,5976
2016-10-19T12:57:47.254Z,6216
2016-10-19T12:58:46.970Z,6408
2016-10-19T12:59:47.284Z,6604
2016-10-19T13:00:47.001Z,6740
2016-10-19T13:01:47.332Z,6824
2016-10-19T13:02:47.366Z,6916
2016-10-19T13:03:47.376Z,7040
2016-10-19T13:04:47.682Z,7208
2016-10-19T13:05:47.216Z,7416
2016-10-19T13:06:47.148Z,7612
2016-10-19T13:07:47.167Z,7756
2016-10-19T13:08:47.186Z,7796
2016-10-19T13:09:47.205Z,7768
2016-10-19T13:10:47.192Z,7680
2016-10-19T13:11:47.230Z,7628
2016-10-19T13:12:47.346Z,7492
2016-10-19T13:13:47.722Z,7436
2016-10-19T13:14:47.278Z,7448
2016-10-19T13:15:47.347Z,7480
2016-10-19T13:16:47.344Z,7552
2016-10-19T13:17:47.746Z,7684
2016-10-19T13:18:47.748Z,7816
2016-10-19T13:19:47.816Z,7908
2016-10-19T13:20:47.764Z,7944
2016-10-19T13:21:47.785Z,7932
2016-10-19T13:22:47.817Z,7888
2016-10-19T13:23:47.806Z,7864
2016-10-19T13:24:47.913Z,7992
2016-10-19T13:25:47.859Z,8236
2016-10-19T13:26:47.887Z,8488
2016-10-19T13:27:47.863Z,8648
2016-10-19T13:28:47.558Z,8696
2016-10-19T13:29:47.586Z,8684
2016-10-19T13:30:47.927Z,8576
2016-10-19T13:31:47.630Z,8392
2016-10-19T13:32:47.393Z,8236
2016-10-19T13:33:47.998Z,8156
2016-10-19T13:34:47.909Z,8176
2016-10-19T13:35:47.927Z,8204
2016-10-19T13:36:48.288Z,8216
2016-10-19T13:37:47.919Z,8320
2016-10-19T13:38:47.981Z,8580
2016-10-19T13:39:48.310Z,8852
2016-10-19T13:40:47.952Z,9200
2016-10-19T13:41:47.926Z,9584
2016-10-19T13:42:47.560Z,9996
2016-10-19T13:43:48.289Z,10364
2016-10-19T13:44:48.214Z,10728
2016-10-19T13:45:48.313Z,11036
2016-10-19T13:46:48.298Z,11196
2016-10-19T13:47:47.951Z,11176
2016-10-19T13:48:48.268Z,11132
2016-10-19T13:49:48.283Z,11084
2016-10-19T13:50:48.309Z,10976
2016-10-19T13:51:48.340Z,10896
2016-10-19T13:52:48.351Z,10872
2016-10-19T13:53:48.057Z,10832
2016-10-19T13:54:48.408Z,10716